Estación de Las Viñas
Ultimos registro cada 15 minutos 28
| N° | Estación | Fecha / Hora | Temperatura | Humedad | Lluvia | Velocidad | Dirección | Radiación | Presion |
| 28 | Las Viñas | 04-09-2026 06:45 | 3,1 | 86 | 0 | 0 | 193 | 0 | 1027,8 |
| 27 | Las Viñas | 04-09-2026 06:30 | 3,1 | 87 | 0 | 0 | 158 | 0 | 1027,8 |
| 26 | Las Viñas | 04-09-2026 06:15 | 3,2 | 87 | 0 | 0 | 120 | 0 | 1027,9 |
| 25 | Las Viñas | 04-09-2026 06:00 | 3,4 | 87 | 0 | 0 | 145 | 0 | 1027,9 |
| 24 | Las Viñas | 04-09-2026 05:45 | 3,6 | 87 | 0 | 0,4 | 157 | 0 | 1027,7 |
| 23 | Las Viñas | 04-09-2026 05:30 | 3,6 | 87 | 0 | 0,9 | 114 | 0 | 1027,6 |
| 22 | Las Viñas | 04-09-2026 05:15 | 3,7 | 87 | 0 | 0 | 164 | 0 | 1027,6 |
| 21 | Las Viñas | 04-09-2026 05:00 | 3,7 | 87 | 0 | 2,2 | 134 | 0 | 1027,7 |
| 20 | Las Viñas | 04-09-2026 04:45 | 3,8 | 87 | 0 | 0 | 152 | 0 | 1027,5 |
| 19 | Las Viñas | 04-09-2026 04:30 | 3,8 | 87 | 0 | 0,9 | 144 | 0 | 1027,6 |
| 18 | Las Viñas | 04-09-2026 04:15 | 3,7 | 87 | 0 | 0,9 | 148 | 0 | 1027,4 |
| 17 | Las Viñas | 04-09-2026 04:00 | 3,7 | 87 | 0 | 0 | 145 | 0 | 1027,4 |
| 16 | Las Viñas | 04-09-2026 03:45 | 3,8 | 88 | 0 | 0 | 138 | 0 | 1027,3 |
| 15 | Las Viñas | 04-09-2026 03:30 | 3,9 | 88 | 0 | 0 | 150 | 0 | 1027,3 |
| 14 | Las Viñas | 04-09-2026 03:15 | 4,1 | 88 | 0 | 0 | 147 | 0 | 1027,4 |
| 13 | Las Viñas | 04-09-2026 03:00 | 4,1 | 88 | 0 | 0 | 151 | 0 | 1027,4 |
| 12 | Las Viñas | 04-09-2026 02:45 | 4,1 | 88 | 0 | 0,9 | 148 | 0 | 1027,5 |
| 11 | Las Viñas | 04-09-2026 02:30 | 4,1 | 88 | 0 | 0 | 185 | 0 | 1027,6 |
| 10 | Las Viñas | 04-09-2026 02:15 | 4,1 | 88 | 0 | 0,4 | 185 | 0 | 1027,7 |
| 9 | Las Viñas | 04-09-2026 02:00 | 4,3 | 89 | 0 | 0 | 166 | 0 | 1027,9 |
| 8 | Las Viñas | 04-09-2026 01:45 | 4,4 | 88 | 0 | 0,4 | 175 | 0 | 1028 |
| 7 | Las Viñas | 04-09-2026 01:30 | 4,6 | 88 | 0 | 0 | 221 | 0 | 1027,8 |
| 6 | Las Viñas | 04-09-2026 01:15 | 4,8 | 88 | 0 | 0,9 | 185 | 0 | 1027,9 |
| 5 | Las Viñas | 04-09-2026 01:00 | 4,9 | 88 | 0 | 0 | 151 | 0 | 1027,9 |
| 4 | Las Viñas | 04-09-2026 00:45 | 5,1 | 88 | 0 | 0,4 | 202 | 0 | 1028,1 |
| 3 | Las Viñas | 04-09-2026 00:30 | 5,2 | 88 | 0 | 0,4 | 135 | 0 | 1028,2 |
| 2 | Las Viñas | 04-09-2026 00:15 | 5,3 | 88 | 0 | 0,4 | 151 | 0 | 1028,1 |
| 1 | Las Viñas | 04-09-2026 00:00 | 5,4 | 87 | 0 | 0,4 | 158 | 0 | 1028,2 |